Time;durP1;ratioP1;P1;durP2;ratioP2;P2;SDS_P1;SDS_P2;PMS_P1;PMS_P2;Temp;Humidity;BMP_temperature;BMP_pressure;BME280_temperature;BME280_humidity;BME280_pressure;Samples;Min_cycle;Max_cycle;Signal;HPM_P1;HPM_P2
2022/09/11 00:01:34;;;;;;;;;9.67;8.00;;;;;19.42;86.93;155664.22;5033881;27;45379;-72
2022/09/11 00:04:01;;;;;;;;;10.67;9.00;;;;;19.41;87.04;155568.47;5032811;28;46198;-73
2022/09/11 00:06:27;;;;;;;;;7.00;7.00;;;;;19.40;88.07;155139.78;5032496;27;46810;-73
2022/09/11 00:08:59;;;;;;;;;8.00;8.00;;;;;19.42;87.77;154658.97;5033445;28;45465;-73
2022/09/11 00:11:29;;;;;;;;;5.67;5.67;;;;;19.40;87.37;154727.66;5033752;28;45459;-73
2022/09/11 00:13:55;;;;;;;;;12.00;7.00;;;;;19.32;87.83;154113.78;5033547;27;45389;-73
2022/09/11 00:16:27;;;;;;;;;4.00;3.67;;;;;19.38;87.63;153460.06;5010496;28;45370;-73
2022/09/11 00:18:56;;;;;;;;;7.33;7.33;;;;;19.34;87.81;154065.69;5017662;27;45353;-73
2022/09/11 00:21:21;;;;;;;;;9.33;8.00;;;;;19.25;87.71;154248.75;5033892;27;45395;-73
2022/09/11 00:23:48;;;;;;;;;6.33;6.33;;;;;19.35;87.55;154233.88;5030971;27;47068;-73
2022/09/11 00:26:15;;;;;;;;;7.67;6.00;;;;;19.34;88.04;154221.75;5024400;27;45574;-73
2022/09/11 00:28:41;;;;;;;;;9.33;7.33;;;;;19.36;87.34;154429.59;5032068;28;45564;-73
2022/09/11 00:31:11;;;;;;;;;10.00;8.33;;;;;19.26;86.97;155269.97;5020396;28;45471;-72
2022/09/11 00:33:37;;;;;;;;;10.67;8.67;;;;;19.35;86.75;155930.63;5036143;27;45614;-73
2022/09/11 00:36:06;;;;;;;;;6.00;6.00;;;;;19.32;87.04;155922.69;5023737;28;45448;-72
2022/09/11 00:38:34;;;;;;;;;8.33;7.00;;;;;19.29;86.43;155914.69;5021371;27;45439;-73
2022/09/11 00:41:02;;;;;;;;;9.33;9.33;;;;;19.25;86.26;155905.47;5034116;28;45379;-72
2022/09/11 00:43:29;;;;;;;;;8.67;7.33;;;;;19.24;86.96;155901.47;5034049;28;45455;-72
2022/09/11 00:46:02;;;;;;;;;7.67;7.67;;;;;19.12;86.70;155872.34;5035040;27;45357;-72
2022/09/11 00:48:33;;;;;;;;;7.00;5.67;;;;;19.16;86.78;155792.56;5034576;28;45585;-73
2022/09/11 00:51:02;;;;;;;;;9.67;7.00;;;;;19.18;86.90;155595.22;5031682;28;45419;-72
2022/09/11 00:53:32;;;;;;;;;7.00;7.00;;;;;19.23;87.00;155898.84;5024988;28;45560;-72
2022/09/11 00:56:02;;;;;;;;;9.00;7.67;;;;;19.17;86.07;155884.25;5043847;28;45369;-72
2022/09/11 00:58:32;;;;;;;;;7.00;7.00;;;;;19.21;86.34;155894.84;5014270;27;45491;-72
2022/09/11 01:00:57;;;;;;;;;6.67;6.67;;;;;19.19;86.53;155890.88;5031733;28;45405;-72
2022/09/11 01:03:24;;;;;;;;;9.00;7.00;;;;;19.17;86.28;155885.59;5034400;27;46987;-72
2022/09/11 01:05:51;;;;;;;;;6.33;6.33;;;;;19.14;85.53;155876.31;5026838;28;45551;-72
2022/09/11 01:08:16;;;;;;;;;9.33;9.33;;;;;19.10;85.46;155867.03;5024037;28;45509;-72
2022/09/11 01:10:47;;;;;;;;;7.00;7.00;;;;;19.07;85.67;155859.09;5030032;28;45411;-72
2022/09/11 01:13:34;;;;;;;;;10.33;8.00;;;;;19.05;85.74;155852.47;5031346;28;47674;-72
2022/09/11 01:16:18;;;;;;;;;8.67;7.00;;;;;19.04;86.28;155849.84;5032843;27;45414;-72
2022/09/11 01:19:26;;;;;;;;;6.33;5.00;;;;;19.01;86.06;155843.25;5024216;27;45508;-72
2022/09/11 01:22:13;;;;;;;;;7.33;7.33;;;;;18.95;86.42;155827.34;5023244;27;45578;-72
2022/09/11 01:24:50;;;;;;;;;8.67;6.33;;;;;18.94;86.39;155826.03;5020886;28;47287;-72
2022/09/11 01:27:47;;;;;;;;;6.33;6.33;;;;;18.92;86.57;155820.72;5035097;27;45521;-72
2022/09/11 01:30:14;;;;;;;;;11.67;8.33;;;;;18.94;86.87;155826.03;5024509;28;45424;-73
2022/09/11 01:32:58;;;;;;;;;7.33;7.33;;;;;18.94;86.62;155824.66;5034479;28;45378;-72
2022/09/11 01:35:30;;;;;;;;;6.00;5.00;;;;;18.94;86.89;155824.66;5011272;28;47249;-72
2022/09/11 01:38:24;;;;;;;;;6.00;5.00;;;;;18.94;86.50;155824.66;5034883;28;45406;-73
2022/09/11 01:41:06;;;;;;;;;8.67;7.33;;;;;18.91;86.43;155816.72;5051418;28;45553;-71
2022/09/11 01:43:35;;;;;;;;;9.67;9.33;;;;;18.85;86.46;155800.88;5049087;28;45571;-72
2022/09/11 01:46:04;;;;;;;;;7.67;5.67;;;;;18.88;86.39;155808.81;5055635;28;46349;-72
2022/09/11 01:48:43;;;;;;;;;10.33;8.67;;;;;18.88;86.39;155810.13;5052965;28;45357;-73
2022/09/11 01:51:14;;;;;;;;;7.33;5.67;;;;;18.90;86.45;155814.09;5055079;28;45786;-72
2022/09/11 01:53:45;;;;;;;;;10.00;7.33;;;;;18.90;86.19;155815.41;5049491;28;45454;-72
2022/09/11 01:56:18;;;;;;;;;8.00;6.67;;;;;18.85;86.22;155800.88;5050838;28;46149;-73
2022/09/11 01:58:45;;;;;;;;;9.33;6.67;;;;;18.86;86.49;155804.81;5035738;28;45483;-73
2022/09/11 02:01:19;;;;;;;;;10.00;8.33;;;;;18.88;86.29;155808.81;5044588;28;45411;-72
2022/09/11 02:03:53;;;;;;;;;8.33;8.33;;;;;18.87;85.72;155807.50;5045294;28;45477;-72
2022/09/11 02:06:29;;;;;;;;;5.33;5.33;;;;;18.72;85.83;155769.00;5054136;28;45580;-73
2022/09/11 02:08:59;;;;;;;;;7.67;7.00;;;;;18.89;86.12;155811.44;5035611;28;45471;-72
2022/09/11 02:11:27;;;;;;;;;6.00;6.00;;;;;18.81;86.08;155791.59;5055267;28;45527;-73
2022/09/11 02:14:11;;;;;;;;;7.67;7.33;;;;;18.84;85.48;155799.50;5055771;28;45651;-72
2022/09/11 02:16:58;;;;;;;;;9.00;8.00;;;;;18.82;85.27;155792.91;5046045;28;46459;-72
2022/09/11 02:19:26;;;;;;;;;9.33;9.33;;;;;18.71;85.62;155766.38;5034358;28;45396;-72
2022/09/11 02:21:52;;;;;;;;;9.00;7.00;;;;;18.71;85.49;155766.38;5031509;27;45573;-72
2022/09/11 02:24:21;;;;;;;;;7.67;7.67;;;;;18.66;85.28;155753.16;5035192;27;45430;-73
2022/09/11 02:26:51;;;;;;;;;9.67;7.00;;;;;18.69;85.92;155761.09;5014088;28;47244;-72
2022/09/11 02:29:17;;;;;;;;;7.67;6.67;;;;;18.67;85.31;155754.47;5033812;28;45450;-73
2022/09/11 02:31:44;;;;;;;;;7.33;7.33;;;;;18.62;85.88;155741.25;5032508;27;45472;-73
2022/09/11 02:34:11;;;;;;;;;8.67;8.67;;;;;18.69;86.09;155761.09;5034204;27;45252;-73
2022/09/11 02:37:02;;;;;;;;;8.33;6.67;;;;;18.59;86.00;155733.28;5032826;27;46273;-73
2022/09/11 02:39:46;;;;;;;;;8.00;7.00;;;;;18.65;85.74;155750.47;5015857;27;45573;-85
2022/09/11 02:42:37;;;;;;;;;12.00;10.00;;;;;18.62;85.84;155741.25;5032797;27;45692;-85
2022/09/11 02:45:40;;;;;;;;;8.67;8.33;;;;;18.63;85.43;155745.19;5013212;27;45575;-84
2022/09/11 02:48:14;;;;;;;;;10.00;7.67;;;;;18.64;85.61;155746.53;5025654;28;46000;-85
2022/09/11 02:51:03;;;;;;;;;8.00;6.00;;;;;18.50;85.05;155710.81;5030680;28;45542;-84
2022/09/11 02:53:41;;;;;;;;;9.33;8.00;;;;;18.60;85.25;155737.25;4999322;27;45320;-83
2022/09/11 02:56:14;;;;;;;;;5.67;5.67;;;;;18.45;85.48;155698.88;5031639;28;45558;-83
2022/09/11 02:58:49;;;;;;;;;7.33;7.00;;;;;18.54;85.48;155721.34;5033307;28;45454;-82
2022/09/11 03:01:15;;;;;;;;;9.33;7.67;;;;;18.55;85.75;155724.03;5015061;27;45957;-82
2022/09/11 03:03:45;;;;;;;;;11.00;10.33;;;;;18.53;84.98;155718.72;5032661;27;45491;-82
2022/09/11 03:06:18;;;;;;;;;8.33;8.00;;;;;18.38;85.61;155680.38;5033081;28;45311;-83
2022/09/11 03:08:43;;;;;;;;;10.33;9.33;;;;;18.51;85.26;155713.44;5028316;27;46916;-82
2022/09/11 03:11:09;;;;;;;;;8.33;8.33;;;;;18.47;84.98;155702.81;5029293;27;45433;-82
2022/09/11 03:13:35;;;;;;;;;8.67;8.67;;;;;18.44;85.39;155694.91;5034714;27;45315;-83
2022/09/11 03:16:03;;;;;;;;;8.67;7.33;;;;;18.43;85.45;155692.28;5013224;27;45484;-82
2022/09/11 03:18:29;;;;;;;;;9.00;7.67;;;;;18.40;85.39;155685.63;5033560;28;45704;-82
2022/09/11 03:20:54;;;;;;;;;9.33;7.67;;;;;18.40;85.51;155684.31;5026733;27;45577;-83
2022/09/11 03:23:19;;;;;;;;;8.00;8.00;;;;;18.40;85.26;155684.31;5009721;27;46147;-83
2022/09/11 03:25:44;;;;;;;;;9.00;8.00;;;;;18.36;84.89;155675.06;5025174;27;45387;-82
2022/09/11 03:28:10;;;;;;;;;6.67;6.67;;;;;18.38;84.98;155679.00;5017764;27;47111;-82
2022/09/11 03:30:35;;;;;;;;;6.00;6.00;;;;;18.37;85.02;155677.69;5031916;27;45941;-82
2022/09/11 03:33:01;;;;;;;;;7.67;5.33;;;;;18.37;84.72;155676.38;5029858;27;45940;-82
2022/09/11 03:35:27;;;;;;;;;11.33;7.67;;;;;18.35;84.58;155672.38;5027745;27;45583;-82
2022/09/11 03:37:54;;;;;;;;;7.33;7.33;;;;;18.34;84.88;155671.06;5013755;27;46707;-82
2022/09/11 03:40:20;;;;;;;;;6.33;6.33;;;;;18.31;85.00;155663.16;5029510;27;45388;-71
2022/09/11 03:42:46;;;;;;;;;9.33;8.00;;;;;18.29;85.38;155656.53;5027056;27;45494;-71
2022/09/11 03:45:13;;;;;;;;;11.33;8.00;;;;;18.27;85.27;155651.25;5029193;27;45762;-71
2022/09/11 03:47:39;;;;;;;;;6.00;6.00;;;;;18.26;84.92;155649.94;5014504;28;46256;-71
2022/09/11 03:50:05;;;;;;;;;9.00;8.33;;;;;18.26;85.43;155648.56;5022637;27;45594;-71
2022/09/11 03:52:31;;;;;;;;;8.67;7.00;;;;;18.21;85.35;155635.34;5028304;27;45872;-71
2022/09/11 03:54:57;;;;;;;;;7.67;7.67;;;;;18.23;86.06;155641.94;4994968;27;45373;-72
2022/09/11 03:57:22;;;;;;;;;8.67;7.67;;;;;18.17;85.50;155624.75;4997515;28;47146;-72
2022/09/11 03:59:47;;;;;;;;;10.67;9.33;;;;;18.26;86.10;155648.56;5027559;27;45517;-71
2022/09/11 04:02:13;;;;;;;;;8.67;8.67;;;;;18.28;86.05;155655.19;5024919;27;45390;-71
2022/09/11 04:04:40;;;;;;;;;12.33;9.33;;;;;18.28;86.12;155653.88;5012321;27;45538;-71
2022/09/11 04:07:05;;;;;;;;;11.67;11.67;;;;;18.17;86.75;155626.09;5022475;27;47289;-71
2022/09/11 04:09:31;;;;;;;;;13.33;11.33;;;;;18.29;86.21;155657.84;5024987;27;45462;-71
2022/09/11 04:11:56;;;;;;;;;11.33;11.33;;;;;18.31;86.82;155663.16;5012852;27;45336;-71
2022/09/11 04:14:22;;;;;;;;;13.33;10.33;;;;;18.30;86.76;155534.69;5025379;27;45456;-71
2022/09/11 04:16:47;;;;;;;;;12.33;11.00;;;;;18.32;86.79;155224.22;5026840;27;47080;-71
2022/09/11 04:19:13;;;;;;;;;14.00;12.00;;;;;18.32;86.96;155366.41;5011886;27;45803;-71
2022/09/11 04:21:39;;;;;;;;;10.00;10.00;;;;;18.20;86.69;155331.97;5020482;27;45429;-71
2022/09/11 04:24:05;;;;;;;;;12.00;10.67;;;;;18.31;86.83;155019.25;5020978;27;45600;-71
2022/09/11 04:26:32;;;;;;;;;12.00;11.00;;;;;18.31;87.27;154481.97;5026567;27;46200;-71
2022/09/11 04:28:58;;;;;;;;;12.00;11.00;;;;;18.34;87.24;154734.59;5027809;27;45427;-71
2022/09/11 04:31:26;;;;;;;;;15.00;11.00;;;;;18.34;87.02;154785.09;5018908;27;45667;-71
2022/09/11 04:33:53;;;;;;;;;9.67;9.67;;;;;18.26;87.45;154110.75;5018856;27;45619;-71
2022/09/11 04:36:20;;;;;;;;;11.00;10.00;;;;;18.41;87.37;154434.50;5013350;28;46719;-71
2022/09/11 04:38:46;;;;;;;;;9.67;8.33;;;;;18.43;87.06;154624.28;5030039;27;45537;-83
2022/09/11 04:41:13;;;;;;;;;9.67;9.67;;;;;18.38;86.67;154884.56;5023866;27;45388;-82
2022/09/11 04:43:40;;;;;;;;;9.67;9.33;;;;;18.46;86.81;155153.19;5013004;27;45604;-82
2022/09/11 04:46:09;;;;;;;;;11.67;10.67;;;;;18.48;86.97;155302.00;5026792;27;45359;-82
2022/09/11 04:48:36;;;;;;;;;10.00;10.00;;;;;18.50;86.86;155284.09;5018375;27;45426;-82
2022/09/11 04:51:07;;;;;;;;;9.00;9.00;;;;;18.45;86.91;155540.25;5030167;27;45544;-82
2022/09/11 04:53:33;;;;;;;;;10.67;10.67;;;;;18.48;86.92;155195.31;5014008;28;45838;-82
2022/09/11 04:56:12;;;;;;;;;15.67;13.33;;;;;18.48;87.00;155050.38;5030125;27;45518;-82
2022/09/11 04:58:38;;;;;;;;;12.67;12.33;;;;;18.32;87.53;154338.38;5016916;28;45546;-82
2022/09/11 05:01:12;;;;;;;;;10.33;10.00;;;;;18.49;87.06;154388.44;5028860;27;45462;-82
2022/09/11 05:03:39;;;;;;;;;9.67;9.67;;;;;18.49;87.46;153733.63;5006703;27;45479;-82
2022/09/11 05:06:06;;;;;;;;;15.00;11.67;;;;;18.48;87.51;154011.22;5017397;27;46215;-82
2022/09/11 05:08:32;;;;;;;;;16.00;12.67;;;;;18.41;87.30;153670.28;5021736;27;45615;-82
2022/09/11 05:10:59;;;;;;;;;11.67;10.00;;;;;18.31;87.55;153676.97;5003986;27;45448;-82
2022/09/11 05:13:26;;;;;;;;;8.00;7.67;;;;;18.48;87.35;153532.72;5028663;27;45732;-82
2022/09/11 05:15:51;;;;;;;;;11.67;8.67;;;;;18.48;87.18;153465.81;5013243;27;48133;-82
2022/09/11 05:18:17;;;;;;;;;17.00;12.00;;;;;18.47;87.40;153583.47;5014511;27;48149;-82
2022/09/11 05:20:42;;;;;;;;;8.33;8.33;;;;;18.51;87.73;152607.03;5031092;28;46302;-82
2022/09/11 05:23:10;;;;;;;;;8.67;8.67;;;;;18.49;87.21;153780.09;5034062;27;45352;-83
2022/09/11 05:25:36;;;;;;;;;9.67;8.33;;;;;18.46;87.08;153874.72;5033564;27;46306;-83
2022/09/11 05:28:03;;;;;;;;;10.33;9.00;;;;;18.46;87.51;152695.19;5032403;28;45389;-82
2022/09/11 05:30:28;;;;;;;;;9.33;9.33;;;;;18.42;87.53;153298.34;5033043;27;45443;-82
2022/09/11 05:32:54;;;;;;;;;8.00;7.67;;;;;18.37;87.15;153907.28;5025053;27;46953;-83
2022/09/11 05:35:23;;;;;;;;;10.67;9.00;;;;;18.42;87.22;153072.91;5013602;28;48054;-83
2022/09/11 05:37:48;;;;;;;;;7.67;7.67;;;;;18.37;87.18;153899.09;5019082;27;45550;-82
2022/09/11 05:40:14;;;;;;;;;10.00;8.67;;;;;18.37;86.82;155078.78;5029584;27;45967;-71
2022/09/11 05:42:39;;;;;;;;;11.67;11.00;;;;;18.33;87.08;154468.06;5012966;27;45551;-71
2022/09/11 05:45:05;;;;;;;;;7.00;6.67;;;;;18.33;87.23;153643.91;5026088;27;45428;-71
2022/09/11 05:47:31;;;;;;;;;8.33;8.33;;;;;18.31;87.44;153256.06;5030957;27;45618;-71
2022/09/11 05:49:56;;;;;;;;;9.00;7.67;;;;;18.31;87.71;153402.22;5021788;27;45340;-71
2022/09/11 05:52:23;;;;;;;;;7.33;6.00;;;;;18.35;87.74;152572.28;5031087;27;45372;-72
2022/09/11 05:54:49;;;;;;;;;7.00;6.67;;;;;18.39;88.29;151605.81;5030596;27;45517;-72
2022/09/11 05:57:14;;;;;;;;;9.00;8.67;;;;;18.44;88.15;151087.19;5025075;27;45394;-71
2022/09/11 05:59:39;;;;;;;;;10.67;9.67;;;;;18.45;87.35;152467.06;5028581;27;45460;-71
2022/09/11 06:02:05;;;;;;;;;10.00;9.00;;;;;18.44;87.29;153387.03;5026631;27;45419;-71
2022/09/11 06:04:30;;;;;;;;;9.67;6.67;;;;;18.41;87.43;153293.03;5028869;27;46537;-71
2022/09/11 06:06:55;;;;;;;;;12.00;9.00;;;;;18.41;87.73;152601.53;5037833;27;45400;-71
2022/09/11 06:09:21;;;;;;;;;8.33;8.00;;;;;18.43;86.75;154703.56;5030486;27;45413;-72
2022/09/11 06:11:46;;;;;;;;;11.33;8.67;;;;;18.45;87.20;154689.69;5019356;27;45506;-72
2022/09/11 06:14:12;;;;;;;;;8.00;6.67;;;;;18.47;86.93;155049.13;5015871;28;48402;-72
2022/09/11 06:16:37;;;;;;;;;9.00;8.33;;;;;18.34;86.69;155351.13;5013307;27;45541;-71
2022/09/11 06:19:04;;;;;;;;;9.33;8.33;;;;;18.45;86.76;154729.38;5015010;27;45575;-71
2022/09/11 06:21:30;;;;;;;;;7.33;7.00;;;;;18.45;87.22;154342.41;5028563;27;45679;-71
2022/09/11 06:23:55;;;;;;;;;11.33;6.33;;;;;18.46;87.18;154338.25;5041801;27;47104;-71
2022/09/11 06:26:24;;;;;;;;;10.33;9.00;;;;;18.41;87.54;152947.34;5032475;27;45313;-71
2022/09/11 06:28:50;;;;;;;;;8.00;6.00;;;;;18.47;88.30;151816.31;5029143;27;45529;-71
2022/09/11 06:31:18;;;;;;;;;8.33;8.33;;;;;18.51;87.44;153563.84;5028267;27;45455;-71
2022/09/11 06:33:45;;;;;;;;;8.00;8.00;;;;;18.40;87.63;153343.78;5018084;27;47012;-71
2022/09/11 06:36:13;;;;;;;;;9.67;8.00;;;;;18.51;87.46;153994.44;5028475;27;45470;-71
2022/09/11 06:38:39;;;;;;;;;11.67;8.67;;;;;18.46;86.94;154697.78;5020394;27;45525;-72
2022/09/11 06:41:06;;;;;;;;;9.67;9.33;;;;;18.41;87.38;154491.94;5012741;27;45408;-72
2022/09/11 06:43:32;;;;;;;;;7.67;7.00;;;;;18.44;87.04;154814.25;5015736;27;45570;-72
2022/09/11 06:46:05;;;;;;;;;10.00;8.33;;;;;18.43;86.17;155693.59;5020627;27;47142;-71
2022/09/11 06:48:30;;;;;;;;;7.00;7.00;;;;;18.44;86.89;155214.84;5029893;27;45685;-71
2022/09/11 06:50:56;;;;;;;;;9.00;7.67;;;;;18.47;86.82;155436.13;5030172;27;45597;-71
2022/09/11 06:53:21;;;;;;;;;9.33;8.33;;;;;18.48;85.97;155706.81;5029009;27;45493;-69
2022/09/11 06:55:47;;;;;;;;;10.00;6.00;;;;;18.26;85.32;155648.56;5022199;27;45468;-70
2022/09/11 06:58:12;;;;;;;;;6.00;5.33;;;;;18.42;85.93;155689.59;5022008;27;45777;-70
2022/09/11 07:00:38;;;;;;;;;8.00;6.33;;;;;18.45;86.44;155697.53;5023727;27;45490;-70
2022/09/11 07:03:03;;;;;;;;;12.33;9.33;;;;;18.45;85.92;155698.88;5021222;27;47124;-70
2022/09/11 07:05:29;;;;;;;;;6.67;6.67;;;;;18.37;85.69;155677.69;5017819;27;46132;-70
2022/09/11 07:07:55;;;;;;;;;8.67;8.33;;;;;18.46;85.98;155701.50;5018282;27;45585;-70
2022/09/11 07:10:21;;;;;;;;;6.67;6.67;;;;;18.35;86.22;155672.38;5030617;27;45526;-71
2022/09/11 07:12:46;;;;;;;;;7.33;7.00;;;;;18.48;86.87;155091.41;5032083;27;47143;-70
2022/09/11 07:15:12;;;;;;;;;5.33;5.33;;;;;18.51;87.09;155056.94;5028735;27;45680;-70
2022/09/11 07:17:37;;;;;;;;;8.00;8.00;;;;;18.53;87.68;153821.94;5031907;27;45579;-70
2022/09/11 07:20:04;;;;;;;;;8.33;8.33;;;;;18.61;86.64;155630.44;5027588;28;45722;-70
2022/09/11 07:22:30;;;;;;;;;9.33;9.33;;;;;18.58;86.43;155731.97;5031758;27;45565;-71
2022/09/11 07:24:56;;;;;;;;;9.67;9.00;;;;;18.64;86.61;155747.88;5032684;27;45436;-71
2022/09/11 07:27:21;;;;;;;;;16.33;11.67;;;;;18.66;85.91;155751.81;5033015;27;45400;-70
2022/09/11 07:29:47;;;;;;;;;6.00;6.00;;;;;18.66;86.83;155753.16;5031255;27;45383;-71
2022/09/11 07:32:12;;;;;;;;;10.33;9.67;;;;;18.70;86.25;155762.41;5023136;27;50587;-70
2022/09/11 07:34:38;;;;;;;;;11.00;10.33;;;;;18.72;86.77;155369.50;5030751;27;45559;-70
2022/09/11 07:37:03;;;;;;;;;9.00;9.00;;;;;18.74;86.44;155773.00;5029204;27;46632;-70
2022/09/11 07:39:29;;;;;;;;;11.00;11.00;;;;;18.74;86.61;155666.28;5025777;27;45427;-79
2022/09/11 07:41:54;;;;;;;;;13.67;9.00;;;;;18.76;87.04;154682.41;5020360;27;45483;-79
2022/09/11 07:44:21;;;;;;;;;11.67;10.67;;;;;18.80;86.95;155182.81;5027400;27;47342;-79
2022/09/11 07:46:47;;;;;;;;;12.33;10.33;;;;;18.79;86.89;153944.81;5023325;28;45497;-78
2022/09/11 07:49:12;;;;;;;;;15.00;11.33;;;;;18.91;87.52;154182.84;5032679;27;45555;-79
2022/09/11 07:51:38;;;;;;;;;14.33;12.67;;;;;18.83;87.08;154174.16;5023378;27;47019;-78
2022/09/11 07:54:03;;;;;;;;;14.33;12.67;;;;;18.99;86.81;154992.06;5029840;27;45507;-78
2022/09/11 07:56:29;;;;;;;;;13.00;12.33;;;;;18.99;86.91;154743.00;5011475;27;45426;-79
2022/09/11 07:58:56;;;;;;;;;13.67;12.33;;;;;19.06;86.22;155666.19;4994675;28;45560;-78
2022/09/11 08:01:24;;;;;;;;;18.33;14.00;;;;;19.11;87.39;154984.03;5030564;27;46241;-74
2022/09/11 08:03:58;;;;;;;;;19.00;14.67;;;;;19.16;86.38;155439.31;5018935;27;45551;-74
2022/09/11 08:06:26;;;;;;;;;15.67;14.00;;;;;19.19;86.76;155890.88;5014153;27;45523;-74
2022/09/11 08:09:00;;;;;;;;;11.33;11.33;;;;;19.23;85.98;155898.84;5025178;28;45452;-74
2022/09/11 08:11:27;;;;;;;;;19.00;16.33;;;;;19.27;86.33;155909.41;5029974;27;46162;-74
2022/09/11 08:13:54;;;;;;;;;19.33;13.67;;;;;19.38;87.78;154512.81;5038161;28;45570;-73
2022/09/11 08:16:22;;;;;;;;;21.00;14.33;;;;;19.48;86.62;155965.06;5030312;27;45364;-74
2022/09/11 08:18:47;;;;;;;;;16.00;16.00;;;;;19.58;87.29;154806.53;5012269;27;45502;-77
2022/09/11 08:21:14;;;;;;;;;18.00;16.33;;;;;19.66;87.07;155161.84;5030742;28;45705;-75
2022/09/11 08:23:42;;;;;;;;;17.67;17.00;;;;;19.75;87.27;155141.75;5014108;27;45512;-78
2022/09/11 08:26:10;;;;;;;;;16.67;14.33;;;;;19.90;87.42;154035.69;5032074;28;45500;-77
2022/09/11 08:28:37;;;;;;;;;21.33;19.00;;;;;20.04;86.23;156109.47;5031213;28;45632;-75
2022/09/11 08:31:04;;;;;;;;;22.67;19.33;;;;;20.14;85.28;156134.69;5028358;27;46201;-74
2022/09/11 08:33:30;;;;;;;;;25.33;19.67;;;;;20.22;85.39;156157.16;5017600;27;45385;-72
2022/09/11 08:36:01;;;;;;;;;20.33;20.33;;;;;20.40;84.90;156203.56;5026610;27;45509;-72
2022/09/11 08:38:26;;;;;;;;;24.67;20.33;;;;;20.51;84.02;156231.41;5043539;27;45796;-72
2022/09/11 08:40:52;;;;;;;;;19.33;18.33;;;;;20.48;83.57;156223.44;5027526;27;45672;-74
2022/09/11 08:43:34;;;;;;;;;18.33;18.33;;;;;20.62;84.38;156260.59;5020097;27;45483;-74
2022/09/11 08:46:07;;;;;;;;;15.00;15.00;;;;;20.78;84.94;156301.69;5057347;27;45424;-78
2022/09/11 08:49:16;;;;;;;;;24.00;20.33;;;;;21.00;83.40;156358.72;5030333;28;45483;-74
2022/09/11 08:51:43;;;;;;;;;23.67;19.00;;;;;21.06;82.41;156374.59;5007592;27;45462;-74
2022/09/11 08:54:21;;;;;;;;;22.00;18.33;;;;;21.28;82.71;156430.28;5006638;28;45496;-74
2022/09/11 08:56:49;;;;;;;;;23.67;20.67;;;;;21.39;81.84;156459.47;5030590;28;45682;-74
2022/09/11 08:59:14;;;;;;;;;25.00;22.00;;;;;21.52;82.29;156492.72;5033091;27;45447;-74
2022/09/11 09:02:10;;;;;;;;;26.67;22.00;;;;;21.70;83.03;156539.09;5025914;27;45597;-74
2022/09/11 09:04:45;;;;;;;;;23.33;20.33;;;;;21.86;83.29;156581.53;5029963;27;45521;-74
2022/09/11 09:07:49;;;;;;;;;22.67;21.33;;;;;22.13;82.26;156650.56;5023053;27;45733;-74
2022/09/11 09:10:26;;;;;;;;;24.67;21.67;;;;;22.30;80.63;156694.41;5019167;27;45462;-75
2022/09/11 09:12:56;;;;;;;;;24.00;23.33;;;;;22.34;79.73;156705.03;5033576;27;46409;-74
2022/09/11 09:15:37;;;;;;;;;23.67;22.33;;;;;22.34;80.05;156705.03;5028725;27;45744;-74
2022/09/11 09:18:38;;;;;;;;;25.00;23.00;;;;;22.38;79.36;156714.28;5025945;27;45519;-74
2022/09/11 09:21:28;;;;;;;;;24.67;22.00;;;;;22.44;79.29;156730.22;5042647;28;46022;-72
2022/09/11 09:23:55;;;;;;;;;26.33;23.67;;;;;22.43;79.54;156727.53;5057851;28;47329;-72
2022/09/11 09:26:27;;;;;;;;;25.00;24.67;;;;;22.49;79.32;156743.50;5058386;28;46850;-72
2022/09/11 09:28:56;;;;;;;;;22.33;22.00;;;;;22.53;79.06;156754.13;5052846;28;45524;-72
2022/09/11 09:31:27;;;;;;;;;25.00;23.67;;;;;22.60;78.20;156771.38;5057547;28;45911;-72
2022/09/11 09:34:07;;;;;;;;;31.33;26.00;;;;;22.67;78.21;156791.28;5057226;28;46113;-72
2022/09/11 09:36:38;;;;;;;;;27.00;24.67;;;;;22.87;77.83;156843.00;5032238;28;45525;-72
2022/09/11 09:39:13;;;;;;;;;26.33;25.33;;;;;22.90;77.57;156851.00;5040964;28;45764;-72
2022/09/11 09:41:59;;;;;;;;;28.67;24.00;;;;;23.17;77.63;156921.41;5056747;28;45521;-72
2022/09/11 09:44:43;;;;;;;;;35.33;29.00;;;;;23.39;78.05;156977.22;5741584;22;46425;-71
2022/09/11 09:47:11;;;;;;;;;24.33;21.67;;;;;23.64;75.49;157042.25;4992023;28;45258;-71
2022/09/11 09:49:37;;;;;;;;;26.33;25.67;;;;;23.86;76.46;157099.44;4974379;28;45398;-71
2022/09/11 09:52:19;;;;;;;;;26.67;24.67;;;;;24.13;75.21;157168.50;4992007;28;45493;-71
2022/09/11 09:54:55;;;;;;;;;24.67;23.00;;;;;24.45;73.38;157252.22;4988287;28;47557;-71
2022/09/11 09:57:25;;;;;;;;;28.67;25.33;;;;;24.67;73.62;157309.38;4992216;28;45510;-71
2022/09/11 10:00:26;;;;;;;;;22.67;22.67;;;;;25.11;70.60;157422.38;4972452;28;45463;-71
2022/09/11 10:02:54;;;;;;;;;19.67;17.67;;;;;25.36;70.03;157487.59;4932125;28;45577;-71
2022/09/11 10:05:29;;;;;;;;;24.33;22.00;;;;;25.44;69.52;157508.84;4924273;28;45512;-71
2022/09/11 10:08:06;;;;;;;;;23.33;22.33;;;;;25.55;68.83;157536.78;4930086;28;45481;-71
2022/09/11 10:10:37;;;;;;;;;23.00;21.33;;;;;25.80;67.30;157601.91;4924579;28;45428;-72
2022/09/11 10:13:07;;;;;;;;;19.67;16.67;;;;;25.64;67.19;157560.72;4929636;28;45573;-73
2022/09/11 10:15:38;;;;;;;;;17.00;15.67;;;;;25.73;66.45;157583.31;4928656;28;46161;-73
2022/09/11 10:18:32;;;;;;;;;13.33;13.33;;;;;25.94;66.29;157639.19;4907392;28;45465;-73
2022/09/11 10:21:12;;;;;;;;;11.67;11.67;;;;;25.80;64.50;157601.91;4932335;28;45486;-73
2022/09/11 10:23:46;;;;;;;;;10.33;10.33;;;;;25.85;64.55;157615.25;4910332;28;45574;-72
2022/09/11 10:26:24;;;;;;;;;6.33;6.33;;;;;26.26;62.50;157723.00;4926679;28;46723;-73
2022/09/11 10:28:52;;;;;;;;;8.67;8.67;;;;;26.83;61.75;157870.78;4926482;28;45401;-73
2022/09/11 10:31:19;;;;;;;;;8.00;4.00;;;;;27.33;60.30;157999.94;4926212;28;45438;-73
2022/09/11 10:33:55;;;;;;;;;6.75;5.00;;;;;28.03;58.02;158181.06;4926272;28;45598;-73
2022/09/11 10:36:27;;;;;;;;;5.67;5.00;;;;;28.73;56.81;158363.56;4946149;28;47249;-73
2022/09/11 10:38:54;;;;;;;;;6.00;5.50;;;;;29.46;55.26;158555.53;4986166;28;46249;-73
2022/09/11 10:41:22;;;;;;;;;6.75;5.00;;;;;30.26;52.55;142727.44;4992461;28;45467;-73
2022/09/11 10:44:04;;;;;;;;;5.50;5.50;;;;;30.97;51.20;72520.31;4990223;28;45796;-73
2022/09/11 10:46:37;;;;;;;;;5.75;5.25;;;;;31.53;50.61;52171.06;4992378;28;45919;-76
2022/09/11 10:49:22;;;;;;;;;7.75;6.25;;;;;32.06;49.01;-18834.31;4975588;28;45678;-76
2022/09/11 10:52:02;;;;;;;;;3.75;3.75;;;;;32.45;47.17;-20063.25;4991407;28;45689;-77
2022/09/11 10:54:52;;;;;;;;;6.00;6.00;;;;;32.86;46.34;-20073.59;4989791;28;45488;-77
2022/09/11 10:57:42;;;;;;;;;5.25;5.00;;;;;33.30;45.75;-20085.00;4991568;28;45680;-74
2022/09/11 11:00:21;;;;;;;;;6.25;6.00;;;;;33.68;44.47;-20094.53;4989097;28;46037;-77
2022/09/11 11:02:51;;;;;;;;;5.00;5.00;;;;;33.62;43.46;-20093.22;4993630;28;45463;-77
2022/09/11 11:05:50;;;;;;;;;3.75;3.75;;;;;33.70;43.65;-20095.06;4990510;28;45476;-80
2022/09/11 11:08:27;;;;;;;;;6.00;6.00;;;;;33.90;42.65;-20100.16;4992288;28;45424;-79
2022/09/11 11:11:04;;;;;;;;;4.75;4.75;;;;;33.71;42.31;-20095.44;4989696;28;45716;-81
2022/09/11 11:13:54;;;;;;;;;4.25;4.25;;;;;33.38;41.85;-20087.06;4981152;28;45509;-80
2022/09/11 11:16:47;;;;;;;;;5.00;5.00;;;;;33.47;41.93;-20089.16;4980355;28;45555;-81
2022/09/11 11:19:28;;;;;;;;;5.75;5.25;;;;;33.42;41.38;-20088.00;4987180;28;45861;-81
2022/09/11 11:22:14;;;;;;;;;4.00;4.00;;;;;33.43;41.15;-20088.25;4978385;28;45507;-80
2022/09/11 11:25:14;;;;;;;;;5.00;5.00;;;;;33.54;41.36;-20091.13;4979464;28;45772;-80
2022/09/11 11:28:01;;;;;;;;;4.25;3.75;;;;;33.52;40.78;-20090.47;4971883;28;45367;-79
2022/09/11 11:30:41;;;;;;;;;4.75;3.75;;;;;33.71;40.78;-20095.31;4982984;28;46552;-74
2022/09/11 11:33:25;;;;;;;;;3.50;3.00;;;;;33.91;40.00;-20100.41;4972720;28;45526;-78
2022/09/11 11:36:19;;;;;;;;;3.50;3.25;;;;;34.02;39.15;-20103.44;4985057;28;45498;-83
2022/09/11 11:39:35;;;;;;;;;4.50;4.50;;;;;33.83;38.80;-20098.47;4930481;28;45528;-77